YSWG Airport Information

Runway Information
Runway 05 Length 5801 ft width 148 ft
Elevation 712 ft Threshold 0 ft Heading 62
Runway 23 Length 5801 ft Width 148 ft
Elevation 699 ft Threshold 0 ft Heading 242
Runway 12 Length 5007 ft width 98 ft
Elevation 692 ft Threshold 0 ft Heading 125
Runway 30 Length 5007 ft Width 98 ft
Elevation 724 ft Threshold 0 ft Heading 305
Airport Frequencies
Type CTAF Name CTAF Frequency 118.2 MHZ
Type FSS Name MELBOURNE Frequency 119.5 MHZ
Airport Navaids
Type VOR-DME Name Wagga Wagga Frequency 115000 KHZ
Type NDB Name Wagga Wagga Frequency 221 KHZ
Airport Weather Information & NOTAM
ADDS - METARS form results

(1048 UTC 23 May 2019)
Data provider http://aviationweather.gov/metar/data/
 
METAR text: YSWG 231000Z AUTO 11004KT 9999 // NCD 08/05 Q1025
Conditions at: YSWG (WAGGA WAGGA(CV/M, AU) observed 1000 UTC 23 May 2019
Temperature: 8.0°C (46°F)
Dewpoint: 5.0°C (41°F) [RH = 81%]
Pressure (altimeter): 30.27 inches Hg (1025.0 mb)
Winds: from the ESE (110 degrees) at 5 MPH (4 knots; 2.1 m/s)
Visibility: 6 or more miles (10+ km)
Ceiling: at least 12,000 feet AGL
Clouds: sky clear below 12,000 feet AGL
Weather: no significant weather observed at this time